createdAt,value
2022-09-17T00:00:33.000Z,1004.4
2022-09-17T00:03:18.000Z,1004.4
2022-09-17T00:09:03.000Z,1004.4
2022-09-17T00:11:48.000Z,1004.5
2022-09-17T00:13:06.000Z,1004.5
2022-09-17T00:14:33.000Z,1004.5
2022-09-17T00:20:02.000Z,1004.5
2022-09-17T00:22:47.000Z,1004.5
2022-09-17T00:25:31.000Z,1004.5
2022-09-17T00:28:16.000Z,1004.6
2022-09-17T00:31:01.000Z,1004.6
2022-09-17T00:33:45.000Z,1004.5
2022-09-17T00:36:30.000Z,1004.6
2022-09-17T00:39:15.000Z,1004.6
2022-09-17T00:42:15.000Z,1004.7
2022-09-17T00:45:00.000Z,1004.7
2022-09-17T00:47:45.000Z,1004.6
2022-09-17T00:50:29.000Z,1004.7
2022-09-17T00:53:14.000Z,1004.7
2022-09-17T00:55:59.000Z,1004.7
2022-09-17T00:58:43.000Z,1004.6
2022-09-17T01:01:28.000Z,1004.6
2022-09-17T01:04:13.000Z,1004.7
2022-09-17T01:06:57.000Z,1004.7
2022-09-17T01:09:42.000Z,1004.8
2022-09-17T01:12:27.000Z,1004.7
2022-09-17T01:15:11.000Z,1004.8
2022-09-17T01:20:40.000Z,1004.8
2022-09-17T01:23:25.000Z,1004.8
2022-09-17T01:26:10.000Z,1004.8
2022-09-17T01:28:55.000Z,1004.8
2022-09-17T01:31:55.000Z,1004.8
2022-09-17T01:34:40.000Z,1004.8
2022-09-17T01:35:58.000Z,1004.8
2022-09-17T01:37:25.000Z,1004.8
2022-09-17T01:40:09.000Z,1004.8
2022-09-17T01:42:54.000Z,1004.8
2022-09-17T01:45:39.000Z,1004.9
2022-09-17T01:48:23.000Z,1004.9
2022-09-17T01:53:53.000Z,1004.9
2022-09-17T01:56:37.000Z,1004.8
2022-09-17T01:59:22.000Z,1004.9
2022-09-17T02:02:06.000Z,1004.9
2022-09-17T02:03:24.000Z,1005
2022-09-17T02:04:51.000Z,1004.9
2022-09-17T02:07:36.000Z,1004.9
2022-09-17T02:10:20.000Z,1004.9
2022-09-17T02:13:05.000Z,1005
2022-09-17T02:15:50.000Z,1005
2022-09-17T02:18:34.000Z,1004.9
2022-09-17T02:21:19.000Z,1005
2022-09-17T02:24:04.000Z,1005
2022-09-17T02:29:33.000Z,1005
2022-09-17T02:30:51.000Z,1005
2022-09-17T02:32:17.000Z,1005
2022-09-17T02:38:03.000Z,1005
2022-09-17T02:40:48.000Z,1005
2022-09-17T02:43:49.000Z,1005
2022-09-17T02:54:47.000Z,1005.1
2022-09-17T03:00:17.000Z,1005.1
2022-09-17T03:03:01.000Z,1005.1
2022-09-17T03:05:46.000Z,1005.1
2022-09-17T03:08:31.000Z,1005
2022-09-17T03:11:15.000Z,1005
2022-09-17T03:14:00.000Z,1005
2022-09-17T03:16:45.000Z,1005.1
2022-09-17T03:19:29.000Z,1005.1
2022-09-17T03:22:14.000Z,1005.1
2022-09-17T03:24:58.000Z,1005.1
2022-09-17T03:26:16.000Z,1005.2
2022-09-17T03:27:43.000Z,1005.2
2022-09-17T03:30:27.000Z,1005.2
2022-09-17T03:31:57.000Z,1005.2
2022-09-17T03:33:28.000Z,1005.2
2022-09-17T03:34:58.000Z,1005.2
2022-09-17T03:36:29.000Z,1005.3
2022-09-17T03:38:00.000Z,1005.2
2022-09-17T03:41:01.000Z,1005.2
2022-09-17T03:45:32.000Z,1005.2
2022-09-17T03:47:03.000Z,1005.2
2022-09-17T03:48:33.000Z,1005.2
2022-09-17T03:51:34.000Z,1005.2
2022-09-17T03:54:22.000Z,1005.3
2022-09-17T03:58:40.000Z,1005.3
2022-09-17T04:00:10.000Z,1005.3
2022-09-17T04:01:41.000Z,1005.3
2022-09-17T04:04:42.000Z,1005.3
2022-09-17T04:06:12.000Z,1005.3
2022-09-17T04:09:13.000Z,1005.3
2022-09-17T04:10:30.000Z,1005.3
2022-09-17T04:11:47.000Z,1005.4
2022-09-17T04:13:18.000Z,1005.3
2022-09-17T04:14:48.000Z,1005.4
2022-09-17T04:16:19.000Z,1005.4
2022-09-17T04:17:49.000Z,1005.4
2022-09-17T04:19:20.000Z,1005.4
2022-09-17T04:20:50.000Z,1005.4
2022-09-17T04:25:22.000Z,1005.4
2022-09-17T04:26:39.000Z,1005.5
2022-09-17T04:29:26.000Z,1005.5
2022-09-17T04:30:57.000Z,1005.5
2022-09-17T04:35:28.000Z,1005.5
2022-09-17T04:40:00.000Z,1005.6
2022-09-17T04:44:04.000Z,1005.5
2022-09-17T04:50:06.000Z,1005.4
2022-09-17T04:51:37.000Z,1005.4
2022-09-17T04:53:07.000Z,1005.4
2022-09-17T04:54:38.000Z,1005.4
2022-09-17T04:57:39.000Z,1005.4
2022-09-17T05:00:13.000Z,1005.4
2022-09-17T05:01:43.000Z,1005.4
2022-09-17T05:03:14.000Z,1005.4
2022-09-17T05:04:44.000Z,1005.4
2022-09-17T05:06:15.000Z,1005.4
2022-09-17T05:07:45.000Z,1005.5
2022-09-17T05:10:46.000Z,1005.5
2022-09-17T05:12:17.000Z,1005.5
2022-09-17T05:15:04.000Z,1005.5
2022-09-17T05:16:21.000Z,1005.6
2022-09-17T05:19:22.000Z,1005.6
2022-09-17T05:20:53.000Z,1005.6
2022-09-17T05:22:23.000Z,1005.6
2022-09-17T05:25:24.000Z,1005.7
2022-09-17T05:26:55.000Z,1005.7
2022-09-17T05:28:25.000Z,1005.7
2022-09-17T05:31:13.000Z,1005.7
2022-09-17T05:34:00.000Z,1005.7
2022-09-17T05:35:31.000Z,1005.7
2022-09-17T05:37:01.000Z,1005.7
2022-09-17T05:38:32.000Z,1005.8
2022-09-17T05:41:33.000Z,1005.8
2022-09-17T05:43:03.000Z,1005.7
2022-09-17T05:44:34.000Z,1005.8
2022-09-17T05:46:04.000Z,1005.7
2022-09-17T05:47:21.000Z,1005.7
2022-09-17T05:48:38.000Z,1005.7
2022-09-17T05:50:09.000Z,1005.8
2022-09-17T05:51:39.000Z,1005.8
2022-09-17T05:53:10.000Z,1005.8
2022-09-17T05:54:40.000Z,1005.8
2022-09-17T05:56:11.000Z,1005.8
2022-09-17T05:57:41.000Z,1005.8
2022-09-17T05:59:12.000Z,1005.9
2022-09-17T06:00:43.000Z,1005.9
2022-09-17T06:02:13.000Z,1005.9
2022-09-17T06:04:47.000Z,1006
2022-09-17T06:09:18.000Z,1006
2022-09-17T06:12:20.000Z,1006
2022-09-17T06:13:50.000Z,1006.1
2022-09-17T06:15:21.000Z,1006.1
2022-09-17T06:16:51.000Z,1006.1
2022-09-17T06:18:22.000Z,1006.1
2022-09-17T06:19:39.000Z,1006.1
2022-09-17T06:20:56.000Z,1006.1
2022-09-17T06:22:26.000Z,1006.1
2022-09-17T06:23:57.000Z,1006.2
2022-09-17T06:25:27.000Z,1006.1
2022-09-17T06:26:58.000Z,1006.1
2022-09-17T06:28:28.000Z,1006.1
2022-09-17T06:29:59.000Z,1006.1
2022-09-17T06:31:29.000Z,1006.1
2022-09-17T06:33:00.000Z,1006.1
2022-09-17T06:34:30.000Z,1006.1
2022-09-17T06:35:47.000Z,1006.1
2022-09-17T06:37:04.000Z,1006.1
2022-09-17T06:40:05.000Z,1006.1
2022-09-17T06:41:36.000Z,1006.1
2022-09-17T06:43:06.000Z,1006.1
2022-09-17T06:46:07.000Z,1006.2
2022-09-17T06:47:38.000Z,1006.2
2022-09-17T06:49:08.000Z,1006.2
2022-09-17T06:50:39.000Z,1006.2
2022-09-17T06:51:56.000Z,1006.2
2022-09-17T06:53:13.000Z,1006.2
2022-09-17T06:54:43.000Z,1006.2
2022-09-17T06:57:44.000Z,1006.2
2022-09-17T06:59:15.000Z,1006.2
2022-09-17T07:00:45.000Z,1006.2
2022-09-17T07:03:46.000Z,1006.2
2022-09-17T07:05:17.000Z,1006.2
2022-09-17T07:06:47.000Z,1006.2
2022-09-17T07:09:21.000Z,1006.2
2022-09-17T07:10:52.000Z,1006.2
2022-09-17T07:12:22.000Z,1006.2
2022-09-17T07:18:24.000Z,1006.2
2022-09-17T07:19:55.000Z,1006.2
2022-09-17T07:21:25.000Z,1006.2
2022-09-17T07:22:56.000Z,1006.2
2022-09-17T07:24:13.000Z,1006.2
2022-09-17T07:25:29.000Z,1006.2
2022-09-17T07:27:00.000Z,1006.2
2022-09-17T07:28:30.000Z,1006.2
2022-09-17T07:30:01.000Z,1006.2
2022-09-17T07:31:31.000Z,1006.2
2022-09-17T07:33:02.000Z,1006.3
2022-09-17T07:34:32.000Z,1006.2
2022-09-17T07:36:03.000Z,1006.3
2022-09-17T07:37:33.000Z,1006.3
2022-09-17T07:39:04.000Z,1006.3
2022-09-17T07:40:21.000Z,1006.2
2022-09-17T07:41:38.000Z,1006.3
2022-09-17T07:44:39.000Z,1006.3
2022-09-17T07:46:09.000Z,1006.3
2022-09-17T07:47:40.000Z,1006.3
2022-09-17T07:49:10.000Z,1006.3
2022-09-17T07:50:41.000Z,1006.1
2022-09-17T07:52:11.000Z,1006.2
2022-09-17T07:53:42.000Z,1006.2
2022-09-17T07:55:12.000Z,1006.2
2022-09-17T07:56:29.000Z,1006.2
2022-09-17T07:57:46.000Z,1006.2
2022-09-17T07:59:17.000Z,1006.2
2022-09-17T08:00:47.000Z,1006.2
2022-09-17T08:02:18.000Z,1006.1
2022-09-17T08:03:48.000Z,1006.2
2022-09-17T08:05:19.000Z,1006.2
2022-09-17T08:06:49.000Z,1006.2
2022-09-17T08:08:20.000Z,1006.2
2022-09-17T08:09:50.000Z,1006.1
2022-09-17T08:11:21.000Z,1006.1
2022-09-17T08:12:51.000Z,1006.1
2022-09-17T08:14:08.000Z,1006.1
2022-09-17T08:16:56.000Z,1006.1
2022-09-17T08:18:26.000Z,1006
2022-09-17T08:19:57.000Z,1006
2022-09-17T08:21:27.000Z,1006.1
2022-09-17T08:22:58.000Z,1006
2022-09-17T08:24:28.000Z,1006
2022-09-17T08:25:59.000Z,1005.9
2022-09-17T08:27:29.000Z,1005.8
2022-09-17T08:30:17.000Z,1006
2022-09-17T08:33:04.000Z,1005.9
2022-09-17T08:34:34.000Z,1005.9
2022-09-17T08:36:05.000Z,1005.9
2022-09-17T08:37:35.000Z,1006
2022-09-17T08:39:06.000Z,1006
2022-09-17T08:40:36.000Z,1005.9
2022-09-17T08:42:07.000Z,1006
2022-09-17T08:45:08.000Z,1006
2022-09-17T08:46:24.000Z,1006
2022-09-17T08:47:41.000Z,1005.9
2022-09-17T08:49:12.000Z,1006
2022-09-17T08:50:42.000Z,1006
2022-09-17T08:52:13.000Z,1006
2022-09-17T08:53:43.000Z,1006
2022-09-17T08:55:14.000Z,1006.1
2022-09-17T08:56:44.000Z,1006
2022-09-17T08:58:15.000Z,1006
2022-09-17T08:59:45.000Z,1006
2022-09-17T09:01:16.000Z,1006
2022-09-17T09:02:33.000Z,1006
2022-09-17T09:03:50.000Z,1006.1
2022-09-17T09:05:20.000Z,1006.1
2022-09-17T09:06:51.000Z,1006.1
2022-09-17T09:08:21.000Z,1006
2022-09-17T09:09:52.000Z,1006
2022-09-17T09:11:22.000Z,1006
2022-09-17T09:12:53.000Z,1006.1
2022-09-17T09:14:24.000Z,1006
2022-09-17T09:15:54.000Z,1006
2022-09-17T09:17:25.000Z,1006
2022-09-17T09:18:42.000Z,1006.1
2022-09-17T09:21:29.000Z,1006
2022-09-17T09:22:59.000Z,1006.1
2022-09-17T09:24:30.000Z,1006.2
2022-09-17T09:26:01.000Z,1006
2022-09-17T09:27:31.000Z,1006
2022-09-17T09:30:32.000Z,1006.1
2022-09-17T09:32:03.000Z,1006.1
2022-09-17T09:33:33.000Z,1006.1
2022-09-17T09:34:50.000Z,1006
2022-09-17T09:36:07.000Z,1006.2
2022-09-17T09:37:38.000Z,1006.1
2022-09-17T09:39:08.000Z,1006
2022-09-17T09:40:39.000Z,1005.9
2022-09-17T09:42:09.000Z,1006
2022-09-17T09:43:40.000Z,1006
2022-09-17T09:45:10.000Z,1006
2022-09-17T09:46:41.000Z,1005.9
2022-09-17T09:48:11.000Z,1006
2022-09-17T09:49:42.000Z,1006
2022-09-17T09:50:59.000Z,1006
2022-09-17T09:52:16.000Z,1006
2022-09-17T09:53:46.000Z,1006.1
2022-09-17T09:55:17.000Z,1005.9
2022-09-17T09:58:18.000Z,1006.1
2022-09-17T09:59:48.000Z,1006
2022-09-17T10:01:19.000Z,1006.1
2022-09-17T10:02:49.000Z,1006
2022-09-17T10:04:20.000Z,1006
2022-09-17T10:05:50.000Z,1005.9
2022-09-17T10:07:07.000Z,1005.9
2022-09-17T10:08:24.000Z,1005.9
2022-09-17T10:09:54.000Z,1005.9
2022-09-17T10:11:25.000Z,1005.9
2022-09-17T10:12:55.000Z,1006
2022-09-17T10:14:26.000Z,1006
2022-09-17T10:15:56.000Z,1006
2022-09-17T10:17:27.000Z,1006
2022-09-17T10:18:57.000Z,1006
2022-09-17T10:20:28.000Z,1005.9
2022-09-17T10:23:15.000Z,1006
2022-09-17T10:24:32.000Z,1005.9
2022-09-17T10:26:03.000Z,1005.9
2022-09-17T10:27:33.000Z,1005.9
2022-09-17T10:29:04.000Z,1005.9
2022-09-17T10:30:34.000Z,1006
2022-09-17T10:33:35.000Z,1006
2022-09-17T10:35:06.000Z,1006.1
2022-09-17T10:36:36.000Z,1006
2022-09-17T10:38:07.000Z,1006.1
2022-09-17T10:39:24.000Z,1006
2022-09-17T10:40:41.000Z,1006
2022-09-17T10:42:11.000Z,1006
2022-09-17T10:43:42.000Z,1006.1
2022-09-17T10:45:12.000Z,1006.1
2022-09-17T10:46:43.000Z,1006
2022-09-17T10:48:13.000Z,1006
2022-09-17T10:49:44.000Z,1005.9
2022-09-17T10:51:14.000Z,1006
2022-09-17T10:52:45.000Z,1006
2022-09-17T10:54:15.000Z,1005.9
2022-09-17T10:55:32.000Z,1005.9
2022-09-17T10:56:49.000Z,1005.9
2022-09-17T10:58:20.000Z,1005.8
2022-09-17T10:59:50.000Z,1005.9
2022-09-17T11:01:21.000Z,1005.9
2022-09-17T11:02:51.000Z,1005.9
2022-09-17T11:04:22.000Z,1005.7
2022-09-17T11:05:52.000Z,1005.7
2022-09-17T11:07:23.000Z,1005.7
2022-09-17T11:08:53.000Z,1005.8
2022-09-17T11:10:24.000Z,1005.7
2022-09-17T11:11:41.000Z,1005.7
2022-09-17T11:12:57.000Z,1005.7
2022-09-17T11:14:13.000Z,1005.6
2022-09-17T11:15:29.000Z,1005.6
2022-09-17T11:16:46.000Z,1005.6
2022-09-17T11:18:02.000Z,1005.5
2022-09-17T11:19:19.000Z,1005.6
2022-09-17T11:20:35.000Z,1005.7
2022-09-17T11:21:52.000Z,1005.6
2022-09-17T11:23:08.000Z,1005.6
2022-09-17T11:24:25.000Z,1005.6
2022-09-17T11:25:41.000Z,1005.6
2022-09-17T11:26:58.000Z,1005.6
2022-09-17T11:28:14.000Z,1005.6
2022-09-17T11:29:31.000Z,1005.6
2022-09-17T11:30:47.000Z,1005.7
2022-09-17T11:32:03.000Z,1005.7
2022-09-17T11:33:19.000Z,1005.7
2022-09-17T11:34:36.000Z,1005.6
2022-09-17T11:35:52.000Z,1005.7
2022-09-17T11:37:09.000Z,1005.6
2022-09-17T11:38:25.000Z,1005.6
2022-09-17T11:40:58.000Z,1005.6
2022-09-17T11:42:15.000Z,1005.7
2022-09-17T11:44:48.000Z,1005.6
2022-09-17T11:46:04.000Z,1005.7
2022-09-17T11:47:21.000Z,1005.6
2022-09-17T11:48:37.000Z,1005.6
2022-09-17T11:49:54.000Z,1005.5
2022-09-17T11:51:09.000Z,1005.5
2022-09-17T11:52:26.000Z,1005.5
2022-09-17T11:56:15.000Z,1005.6
2022-09-17T11:57:31.000Z,1005.6
2022-09-17T11:58:47.000Z,1005.5
2022-09-17T12:00:03.000Z,1005.5
2022-09-17T12:01:20.000Z,1005.5
2022-09-17T12:03:53.000Z,1005.5
2022-09-17T12:05:09.000Z,1005.4
2022-09-17T12:06:26.000Z,1005.5
2022-09-17T12:07:42.000Z,1005.5
2022-09-17T12:08:59.000Z,1005.4
2022-09-17T12:10:15.000Z,1005.5
2022-09-17T12:11:32.000Z,1005.5
2022-09-17T12:12:48.000Z,1005.5
2022-09-17T12:14:05.000Z,1005.4
2022-09-17T12:15:21.000Z,1005.5
2022-09-17T12:16:37.000Z,1005.5
2022-09-17T12:17:53.000Z,1005.5
2022-09-17T12:19:10.000Z,1005.6
2022-09-17T12:20:26.000Z,1005.5
2022-09-17T12:21:43.000Z,1005.5
2022-09-17T12:22:59.000Z,1005.5
2022-09-17T12:24:16.000Z,1005.5
2022-09-17T12:26:49.000Z,1005.4
2022-09-17T12:28:05.000Z,1005.4
2022-09-17T12:29:22.000Z,1005.3
2022-09-17T12:31:54.000Z,1005.5
2022-09-17T12:33:10.000Z,1005.4
2022-09-17T12:34:26.000Z,1005.5
2022-09-17T12:35:43.000Z,1005.5
2022-09-17T12:36:59.000Z,1005.5
2022-09-17T12:38:15.000Z,1005.6
2022-09-17T12:40:48.000Z,1005.8
2022-09-17T12:42:04.000Z,1005.8
2022-09-17T12:43:20.000Z,1005.9
2022-09-17T12:44:37.000Z,1005.8
2022-09-17T12:45:53.000Z,1005.8
2022-09-17T12:47:10.000Z,1005.8
2022-09-17T12:48:25.000Z,1005.8
2022-09-17T12:49:42.000Z,1005.8
2022-09-17T12:50:58.000Z,1005.8
2022-09-17T12:52:15.000Z,1005.9
2022-09-17T12:53:31.000Z,1005.8
2022-09-17T12:54:48.000Z,1005.8
2022-09-17T12:56:04.000Z,1005.8
2022-09-17T12:57:21.000Z,1005.7
2022-09-17T12:58:37.000Z,1005.7
2022-09-17T12:59:54.000Z,1005.7
2022-09-17T13:01:09.000Z,1005.7
2022-09-17T13:02:26.000Z,1005.6
2022-09-17T13:03:42.000Z,1005.7
2022-09-17T13:04:58.000Z,1005.7
2022-09-17T13:06:15.000Z,1005.7
2022-09-17T13:07:31.000Z,1005.6
2022-09-17T13:08:48.000Z,1005.7
2022-09-17T13:10:04.000Z,1005.7
2022-09-17T13:11:21.000Z,1005.7
2022-09-17T13:13:53.000Z,1005.7
2022-09-17T13:15:10.000Z,1005.7
2022-09-17T13:16:26.000Z,1005.7
2022-09-17T13:17:43.000Z,1005.8
2022-09-17T13:18:59.000Z,1005.7
2022-09-17T13:20:16.000Z,1005.7
2022-09-17T13:21:32.000Z,1005.7
2022-09-17T13:22:49.000Z,1005.7
2022-09-17T13:24:05.000Z,1005.9
2022-09-17T13:25:22.000Z,1005.9
2022-09-17T13:26:38.000Z,1005.8
2022-09-17T13:27:55.000Z,1005.9
2022-09-17T13:29:11.000Z,1005.9
2022-09-17T13:30:28.000Z,1006
2022-09-17T13:33:01.000Z,1006.3
2022-09-17T13:34:17.000Z,1006.2
2022-09-17T13:35:34.000Z,1006.3
2022-09-17T13:36:50.000Z,1006.4
2022-09-17T13:38:07.000Z,1006.3
2022-09-17T13:39:23.000Z,1006.3
2022-09-17T13:40:40.000Z,1006.3
2022-09-17T13:41:56.000Z,1006.2
2022-09-17T13:45:45.000Z,1006.1
2022-09-17T13:47:01.000Z,1006.1
2022-09-17T13:48:16.000Z,1006
2022-09-17T13:49:33.000Z,1006
2022-09-17T13:50:49.000Z,1006
2022-09-17T13:53:22.000Z,1005.9
2022-09-17T13:54:39.000Z,1005.9
2022-09-17T13:55:55.000Z,1005.8
2022-09-17T14:03:34.000Z,1005.7
2022-09-17T14:04:51.000Z,1005.8
2022-09-17T14:07:24.000Z,1005.8
2022-09-17T14:08:40.000Z,1005.8
2022-09-17T14:11:13.000Z,1005.8
2022-09-17T14:15:02.000Z,1005.8
2022-09-17T14:16:19.000Z,1005.7
2022-09-17T14:17:35.000Z,1005.8
2022-09-17T14:18:52.000Z,1005.7
2022-09-17T14:21:25.000Z,1005.7
2022-09-17T14:23:58.000Z,1005.7
2022-09-17T14:25:14.000Z,1005.7
2022-09-17T14:26:31.000Z,1005.7
2022-09-17T14:27:47.000Z,1005.7
2022-09-17T14:29:04.000Z,1005.7
2022-09-17T14:30:19.000Z,1005.7
2022-09-17T14:32:52.000Z,1005.7
2022-09-17T14:35:25.000Z,1005.7
2022-09-17T14:36:42.000Z,1005.6
2022-09-17T14:37:58.000Z,1005.6
2022-09-17T14:43:04.000Z,1005.6
2022-09-17T14:44:21.000Z,1005.6
2022-09-17T14:45:37.000Z,1005.6
2022-09-17T14:46:54.000Z,1005.6
2022-09-17T14:54:33.000Z,1005.6
2022-09-17T14:55:49.000Z,1005.6
2022-09-17T14:57:05.000Z,1005.6
2022-09-17T14:58:21.000Z,1005.6
2022-09-17T14:59:38.000Z,1005.6
2022-09-17T15:00:54.000Z,1005.6
2022-09-17T15:02:11.000Z,1005.6
2022-09-17T15:04:44.000Z,1005.8
2022-09-17T15:06:00.000Z,1005.8
2022-09-17T15:07:17.000Z,1005.8
2022-09-17T15:08:33.000Z,1005.7
2022-09-17T15:09:50.000Z,1005.7
2022-09-17T15:11:06.000Z,1005.8
2022-09-17T15:13:39.000Z,1005.8
2022-09-17T15:14:56.000Z,1005.7
2022-09-17T15:16:12.000Z,1005.7
2022-09-17T15:17:28.000Z,1005.7
2022-09-17T15:20:01.000Z,1005.7
2022-09-17T15:21:17.000Z,1005.7
2022-09-17T15:22:34.000Z,1005.7
2022-09-17T15:25:07.000Z,1005.7
2022-09-17T15:26:23.000Z,1005.7
2022-09-17T15:27:40.000Z,1005.7
2022-09-17T15:28:56.000Z,1005.7
2022-09-17T15:30:13.000Z,1005.7
2022-09-17T15:31:29.000Z,1005.7
2022-09-17T15:32:46.000Z,1005.7
2022-09-17T15:34:02.000Z,1005.7
2022-09-17T15:35:18.000Z,1005.7
2022-09-17T15:36:34.000Z,1005.7
2022-09-17T15:37:51.000Z,1005.7
2022-09-17T15:39:07.000Z,1005.7
2022-09-17T15:40:24.000Z,1005.7
2022-09-17T15:41:40.000Z,1005.7
2022-09-17T15:42:57.000Z,1005.7
2022-09-17T15:45:30.000Z,1005.7
2022-09-17T15:46:46.000Z,1005.8
2022-09-17T15:49:19.000Z,1005.7
2022-09-17T15:50:35.000Z,1005.8
2022-09-17T15:51:52.000Z,1005.8
2022-09-17T15:53:08.000Z,1005.8
2022-09-17T15:54:24.000Z,1005.7
2022-09-17T15:55:41.000Z,1005.7
2022-09-17T15:56:57.000Z,1005.7
2022-09-17T15:58:14.000Z,1005.7
2022-09-17T15:59:30.000Z,1005.7
2022-09-17T16:00:47.000Z,1005.7
2022-09-17T16:02:03.000Z,1005.8
2022-09-17T16:03:20.000Z,1005.8
2022-09-17T16:04:36.000Z,1005.8
2022-09-17T16:05:53.000Z,1005.7
2022-09-17T16:07:09.000Z,1005.8
2022-09-17T16:08:25.000Z,1005.8
2022-09-17T16:09:42.000Z,1005.9
2022-09-17T16:10:58.000Z,1005.9
2022-09-17T16:13:31.000Z,1006
2022-09-17T16:14:48.000Z,1006
2022-09-17T16:16:04.000Z,1006.1
2022-09-17T16:17:21.000Z,1006.1
2022-09-17T16:18:37.000Z,1006.1
2022-09-17T16:19:53.000Z,1006
2022-09-17T16:21:10.000Z,1006.1
2022-09-17T16:22:26.000Z,1006
2022-09-17T16:23:42.000Z,1006
2022-09-17T16:24:58.000Z,1005.8
2022-09-17T16:26:15.000Z,1005.9
2022-09-17T16:27:31.000Z,1006
2022-09-17T16:28:48.000Z,1006
2022-09-17T16:30:04.000Z,1006
2022-09-17T16:31:21.000Z,1006
2022-09-17T16:32:37.000Z,1006
2022-09-17T16:35:10.000Z,1006
2022-09-17T16:36:27.000Z,1006
2022-09-17T16:37:43.000Z,1006.1
2022-09-17T16:39:00.000Z,1006.1
2022-09-17T16:40:15.000Z,1006.2
2022-09-17T16:41:32.000Z,1006.1
2022-09-17T16:42:48.000Z,1006.2
2022-09-17T16:44:05.000Z,1006.2
2022-09-17T16:45:21.000Z,1006.2
2022-09-17T16:46:38.000Z,1006.2
2022-09-17T16:47:54.000Z,1006.2
2022-09-17T16:49:11.000Z,1006.2
2022-09-17T16:51:44.000Z,1006.1
2022-09-17T16:53:00.000Z,1006.2
2022-09-17T16:54:16.000Z,1006.2
2022-09-17T16:56:49.000Z,1006.2
2022-09-17T16:58:05.000Z,1006.2
2022-09-17T16:59:20.000Z,1006.2
2022-09-17T17:00:37.000Z,1006.3
2022-09-17T17:03:10.000Z,1006.3
2022-09-17T17:05:43.000Z,1006.3
2022-09-17T17:06:59.000Z,1006.3
2022-09-17T17:08:16.000Z,1006.3
2022-09-17T17:09:32.000Z,1006.3
2022-09-17T17:12:05.000Z,1006.4
2022-09-17T17:13:22.000Z,1006.4
2022-09-17T17:15:55.000Z,1006.4
2022-09-17T17:17:10.000Z,1006.4
2022-09-17T17:18:27.000Z,1006.4
2022-09-17T17:19:43.000Z,1006.4
2022-09-17T17:22:16.000Z,1006.5
2022-09-17T17:24:49.000Z,1006.5
2022-09-17T17:26:06.000Z,1006.4
2022-09-17T17:27:22.000Z,1006.5
2022-09-17T17:28:39.000Z,1006.5
2022-09-17T17:29:55.000Z,1006.5
2022-09-17T17:31:12.000Z,1006.5
2022-09-17T17:32:28.000Z,1006.5
2022-09-17T17:33:45.000Z,1006.6
2022-09-17T17:35:01.000Z,1006.6
2022-09-17T17:36:18.000Z,1006.6
2022-09-17T17:37:34.000Z,1006.6
2022-09-17T17:38:51.000Z,1006.6
2022-09-17T17:40:07.000Z,1006.6
2022-09-17T17:42:39.000Z,1006.6
2022-09-17T17:43:56.000Z,1006.6
2022-09-17T17:45:12.000Z,1006.6
2022-09-17T17:46:29.000Z,1006.7
2022-09-17T17:47:45.000Z,1006.7
2022-09-17T17:49:02.000Z,1006.7
2022-09-17T17:50:18.000Z,1006.7
2022-09-17T17:51:35.000Z,1006.7
2022-09-17T17:52:51.000Z,1006.7
2022-09-17T17:54:07.000Z,1006.7
2022-09-17T17:55:23.000Z,1006.8
2022-09-17T17:56:40.000Z,1006.7
2022-09-17T17:57:56.000Z,1006.8
2022-09-17T17:59:13.000Z,1006.7
2022-09-17T18:00:29.000Z,1006.8
2022-09-17T18:01:45.000Z,1006.8
2022-09-17T18:03:02.000Z,1006.8
2022-09-17T18:04:18.000Z,1006.9
2022-09-17T18:05:35.000Z,1006.9
2022-09-17T18:06:51.000Z,1006.9
2022-09-17T18:08:08.000Z,1006.9
2022-09-17T18:09:24.000Z,1006.8
2022-09-17T18:10:40.000Z,1006.9
2022-09-17T18:11:57.000Z,1006.9
2022-09-17T18:13:13.000Z,1006.9
2022-09-17T18:15:46.000Z,1006.9
2022-09-17T18:17:03.000Z,1007
2022-09-17T18:18:19.000Z,1007
2022-09-17T18:19:36.000Z,1007
2022-09-17T18:20:52.000Z,1007.1
2022-09-17T18:22:09.000Z,1007.1
2022-09-17T18:23:25.000Z,1007.1
2022-09-17T18:25:58.000Z,1007.1
2022-09-17T18:28:31.000Z,1007.2
2022-09-17T18:34:54.000Z,1007.3
2022-09-17T18:36:10.000Z,1007.3
2022-09-17T18:40:00.000Z,1007.3
2022-09-17T18:41:16.000Z,1007.3
2022-09-17T18:43:49.000Z,1007.3
2022-09-17T18:46:22.000Z,1007.3
2022-09-17T18:47:38.000Z,1007.4
2022-09-17T18:50:11.000Z,1007.4
2022-09-17T18:51:27.000Z,1007.4
2022-09-17T18:52:44.000Z,1007.4
2022-09-17T18:54:00.000Z,1007.4
2022-09-17T18:55:17.000Z,1007.4
2022-09-17T18:56:33.000Z,1007.4
2022-09-17T18:59:06.000Z,1007.5
2022-09-17T19:00:23.000Z,1007.5
2022-09-17T19:01:39.000Z,1007.5
2022-09-17T19:02:55.000Z,1007.4
2022-09-17T19:04:11.000Z,1007.5
2022-09-17T19:05:28.000Z,1007.5
2022-09-17T19:06:44.000Z,1007.4
2022-09-17T19:10:34.000Z,1007.4
2022-09-17T19:11:50.000Z,1007.4
2022-09-17T19:13:07.000Z,1007.4
2022-09-17T19:14:23.000Z,1007.5
2022-09-17T19:15:40.000Z,1007.4
2022-09-17T19:18:13.000Z,1007.4
2022-09-17T19:19:28.000Z,1007.5
2022-09-17T19:20:45.000Z,1007.4
2022-09-17T19:22:01.000Z,1007.4
2022-09-17T19:23:18.000Z,1007.5
2022-09-17T19:24:34.000Z,1007.4
2022-09-17T19:27:07.000Z,1007.4
2022-09-17T19:29:40.000Z,1007.4
2022-09-17T19:30:57.000Z,1007.4
2022-09-17T19:32:13.000Z,1007.4
2022-09-17T19:34:46.000Z,1007.5
2022-09-17T19:36:02.000Z,1007.4
2022-09-17T19:38:35.000Z,1007.4
2022-09-17T19:39:51.000Z,1007.4
2022-09-17T19:41:08.000Z,1007.4
2022-09-17T19:43:41.000Z,1007.5
2022-09-17T19:44:57.000Z,1007.6
2022-09-17T19:46:14.000Z,1007.5
2022-09-17T19:47:30.000Z,1007.5
2022-09-17T19:48:47.000Z,1007.5
2022-09-17T19:50:03.000Z,1007.5
2022-09-17T19:51:20.000Z,1007.5
2022-09-17T19:52:36.000Z,1007.4
2022-09-17T19:53:52.000Z,1007.5
2022-09-17T19:55:09.000Z,1007.5
2022-09-17T19:56:25.000Z,1007.5
2022-09-17T19:57:42.000Z,1007.5
2022-09-17T19:58:58.000Z,1007.5
2022-09-17T20:00:14.000Z,1007.5
2022-09-17T20:01:31.000Z,1007.5
2022-09-17T20:02:47.000Z,1007.6
2022-09-17T20:04:04.000Z,1007.5
2022-09-17T20:05:19.000Z,1007.5
2022-09-17T20:06:36.000Z,1007.5
2022-09-17T20:07:52.000Z,1007.5
2022-09-17T20:09:08.000Z,1007.6
2022-09-17T20:10:25.000Z,1007.6
2022-09-17T20:11:41.000Z,1007.6
2022-09-17T20:14:14.000Z,1007.6
2022-09-17T20:16:47.000Z,1007.7
2022-09-17T20:18:03.000Z,1007.7
2022-09-17T20:19:20.000Z,1007.7
2022-09-17T20:23:09.000Z,1007.7
2022-09-17T20:24:25.000Z,1007.7
2022-09-17T20:25:42.000Z,1007.7
2022-09-17T20:26:58.000Z,1007.8
2022-09-17T20:28:14.000Z,1007.7
2022-09-17T20:29:30.000Z,1007.7
2022-09-17T20:30:47.000Z,1007.8
2022-09-17T20:33:20.000Z,1007.8
2022-09-17T20:34:36.000Z,1007.7
2022-09-17T20:35:53.000Z,1007.8
2022-09-17T20:37:09.000Z,1007.8
2022-09-17T20:38:26.000Z,1007.8
2022-09-17T20:39:42.000Z,1007.8
2022-09-17T20:40:59.000Z,1007.8
2022-09-17T20:42:15.000Z,1007.8
2022-09-17T20:43:32.000Z,1007.8
2022-09-17T20:44:48.000Z,1007.8
2022-09-17T20:46:05.000Z,1007.8
2022-09-17T20:48:38.000Z,1007.8
2022-09-17T20:51:11.000Z,1007.8
2022-09-17T20:52:27.000Z,1007.8
2022-09-17T20:53:44.000Z,1007.8
2022-09-17T20:55:00.000Z,1007.8
2022-09-17T20:56:16.000Z,1007.8
2022-09-17T20:57:32.000Z,1007.8
2022-09-17T21:00:05.000Z,1007.8
2022-09-17T21:01:22.000Z,1007.8
2022-09-17T21:02:38.000Z,1007.8
2022-09-17T21:03:55.000Z,1007.7
2022-09-17T21:05:11.000Z,1007.7
2022-09-17T21:06:28.000Z,1007.7
2022-09-17T21:07:44.000Z,1007.8
2022-09-17T21:09:01.000Z,1007.7
2022-09-17T21:10:17.000Z,1007.7
2022-09-17T21:11:33.000Z,1007.7
2022-09-17T21:12:49.000Z,1007.6
2022-09-17T21:14:06.000Z,1007.6
2022-09-17T21:15:22.000Z,1007.6
2022-09-17T21:16:39.000Z,1007.6
2022-09-17T21:20:28.000Z,1007.6
2022-09-17T21:21:45.000Z,1007.6
2022-09-17T21:23:01.000Z,1007.6
2022-09-17T21:24:18.000Z,1007.6
2022-09-17T21:25:34.000Z,1007.6
2022-09-17T21:26:51.000Z,1007.7
2022-09-17T21:28:07.000Z,1007.7
2022-09-17T21:29:24.000Z,1007.7
2022-09-17T21:30:40.000Z,1007.7
2022-09-17T21:31:56.000Z,1007.7
2022-09-17T21:33:13.000Z,1007.7
2022-09-17T21:34:29.000Z,1007.8
2022-09-17T21:35:46.000Z,1007.8
2022-09-17T21:37:02.000Z,1007.8
2022-09-17T21:38:19.000Z,1007.8
2022-09-17T21:39:35.000Z,1007.8
2022-09-17T21:43:25.000Z,1007.8
2022-09-17T21:44:41.000Z,1007.8
2022-09-17T21:45:58.000Z,1007.7
2022-09-17T21:47:13.000Z,1007.8
2022-09-17T21:48:30.000Z,1007.7
2022-09-17T21:49:46.000Z,1007.8
2022-09-17T21:51:03.000Z,1007.7
2022-09-17T21:52:19.000Z,1007.8
2022-09-17T21:53:36.000Z,1007.7
2022-09-17T21:54:52.000Z,1007.7